SKVP/VUP METAR and TAF weather

Enter ICAO airport designator
Station Type Date Time Source
SKVP METAR 2020/09/19 20:00 UTC NOAA

SKVP 192000Z 12004KT 9999 FEW020 SCT200 34/20 A2981


Station Type Date Time Source
SKVP Decoded METAR 2020/09/19 20:00 UTC NOAA

Valledupar / Alfonso Lopez, Colombia (SKVP) 10-26N 073-15W
Sep 19, 2020 - 04:00 PM EDT / 2020.09.19 2000 UTC
Wind: from the ESE (120 degrees) at 5 MPH (4 KT):0
Visibility: greater than 7 mile(s):0
Sky conditions: partly cloudy
Temperature: 93 F (34 C)
Heat index: 96.8 F (36.0 C):1
Dew Point: 68 F (20 C)
Relative Humidity: 43%
Pressure (altimeter): 29.81 in. Hg (1009 hPa)
ob: SKVP 192000Z 12004KT 9999 FEW020 SCT200 34/20 A2981
cycle: 20

Station Type Date Time Source
SKVP TAF UTC NOAA

Error!

Example: see airport list